首页
METAR-TAF:

METAR-TAF

机场 :

斯塔夫罗波尔, 俄罗斯

纬度: 45-20N, 经度: 042-00E, 海拔: 453米

当前天气观测

该预报发布于34分钟前的21:00 UTC
风速8节,风向
温度 23°C
湿度 29%
气压 1014 hPa
能见度10公里或以上
1500米以下无云,无积雨云

METAR: URMT 222100Z 08004MPS CAVOK 23/04 Q1014 R07/010070 NOSIG RMK QFE720

时间: 00:34 (21:34 UTC)

预报

该预报发布于1小时和34分钟前的20:00 UTC
预报有效从22日的 21点(UTC)到 23日的 06点(UTC)
风速6节,风向东转东北,有时为16节阵风
能见度10公里或以上
散云层高于2000英尺

TAF: URMT 222000Z 2221/2306 07003G08MPS 9999 SCT020

超过4000个机场的气象观测和天气预报(METAR&TAF报告)。

可查询的气象台以黄色和红色小点在地图上表示。

将鼠标移到小点上方,可查看气象台名称。

然后点击查看天气观测和预报。

如需切换地图:点击带黑十字的绿色按钮放大地图;点击带横线的绿色按钮缩小地图;或者点击绿色箭头查看邻近地区的地图。


METAR-TAF: